Hartford City, Indiana
Current Conditions -  °F | °C
As of 7:06 PM on Thursday 27 Nov 2014 (Local Time) from KMIE Reporting Station
Overcast Overcast  
Wind Chill: 14°   Ceiling: 3200
Heat Index: 26°   Visibility: 7mi
Dew Point: 19°   Wind: 14mph
Humidity: 75%   Direction: 290°WNW
Pressure: 30.35"   Gusts: NA
Location:  40.45°N, 85.37°W
Report Text: KMIE 280006Z 29012KT 7SM FEW020 BKN032 OVC042 M03/M07 A3035 RMK AO2 SNE06 P0000 T10331072
Loading
Personal Weather Stations






























Interactive Weather Map New forecast layout! Learn more

10-Day Weather Forecast

Advertisements
Track Severe Weather on mobile